Time;durP1;ratioP1;P1;durP2;ratioP2;P2;SDS_P1;SDS_P2;PMS_P1;PMS_P2;Temp;Humidity;BMP_temperature;BMP_pressure;BME280_temperature;BME280_humidity;BME280_pressure;Samples;Min_cycle;Max_cycle;Signal;HPM_P1;HPM_P2
2022/04/20 00:00:51;;;;;;;9.77;2.55;;;8.60;99.90;;;;;;5034800;28;19977;-66
2022/04/20 00:03:16;;;;;;;8.40;3.10;;;8.60;99.90;;;;;;5035791;28;20063;-65
2022/04/20 00:05:42;;;;;;;3.73;2.00;;;8.50;99.90;;;;;;5033298;28;20082;-65
2022/04/20 00:08:08;;;;;;;5.53;2.30;;;8.50;99.90;;;;;;5036283;28;20033;-66
2022/04/20 00:10:33;;;;;;;5.27;2.20;;;8.50;99.90;;;;;;5039296;28;20199;-66
2022/04/20 00:12:59;;;;;;;5.43;2.37;;;8.40;99.90;;;;;;5038512;28;20033;-65
2022/04/20 00:15:25;;;;;;;4.93;3.07;;;8.30;99.90;;;;;;5027452;28;20037;-65
2022/04/20 00:17:50;;;;;;;6.28;2.60;;;8.40;99.90;;;;;;5029425;28;20033;-65
2022/04/20 00:20:17;;;;;;;5.22;2.45;;;8.40;99.90;;;;;;5034100;28;20040;-66
2022/04/20 00:22:42;;;;;;;7.18;2.60;;;8.30;99.90;;;;;;5032241;28;20041;-66
2022/04/20 00:25:08;;;;;;;3.77;1.67;;;8.30;99.90;;;;;;5023301;28;20040;-66
2022/04/20 00:27:35;;;;;;;6.40;2.08;;;8.30;99.90;;;;;;5023083;28;20857;-66
2022/04/20 00:30:12;;;;;;;4.72;2.40;;;8.30;99.90;;;;;;4999455;28;20417;-66
2022/04/20 00:32:38;;;;;;;8.07;2.60;;;8.20;99.90;;;;;;5015973;28;20059;-66
2022/04/20 00:35:05;;;;;;;4.55;2.47;;;8.20;99.90;;;;;;5030066;28;20045;-66
2022/04/20 00:37:32;;;;;;;5.60;2.55;;;8.10;99.90;;;;;;5015644;28;20037;-66
2022/04/20 00:39:58;;;;;;;5.22;2.65;;;8.10;99.90;;;;;;5000612;28;20053;-66
2022/04/20 00:42:23;;;;;;;4.57;2.30;;;8.10;99.90;;;;;;5029076;28;20473;-66
2022/04/20 00:44:50;;;;;;;5.27;2.60;;;8.00;99.90;;;;;;5001382;28;20489;-66
2022/04/20 00:47:17;;;;;;;5.03;2.30;;;8.00;99.90;;;;;;5028420;28;20413;-66
2022/04/20 00:49:45;;;;;;;5.97;2.78;;;8.00;99.90;;;;;;5030616;28;20115;-66
2022/04/20 00:52:11;;;;;;;6.45;2.53;;;7.90;99.90;;;;;;5026946;28;20049;-66
2022/04/20 00:54:37;;;;;;;4.90;2.73;;;7.90;99.90;;;;;;5037550;28;20029;-66
2022/04/20 00:57:03;;;;;;;4.40;2.13;;;7.90;99.90;;;;;;5028279;28;20049;-66
2022/04/20 00:59:30;;;;;;;4.97;2.92;;;7.90;99.90;;;;;;5027356;28;20042;-66
2022/04/20 01:01:56;;;;;;;4.68;2.58;;;7.90;99.90;;;;;;5033037;28;20071;-66
2022/04/20 01:04:22;;;;;;;5.47;2.60;;;7.80;99.90;;;;;;5027189;28;20044;-66
2022/04/20 01:06:50;;;;;;;6.47;2.50;;;7.90;99.90;;;;;;5029882;28;20471;-66
2022/04/20 01:09:17;;;;;;;6.38;2.55;;;7.80;99.90;;;;;;5024154;28;20075;-66
2022/04/20 01:11:43;;;;;;;5.97;3.00;;;7.70;99.90;;;;;;5033123;28;20054;-66
2022/04/20 01:14:09;;;;;;;6.28;2.80;;;7.70;99.90;;;;;;5034429;28;20465;-66
2022/04/20 01:16:35;;;;;;;6.32;2.63;;;7.70;99.90;;;;;;5035565;28;20396;-66
2022/04/20 01:19:02;;;;;;;5.33;2.33;;;7.60;99.90;;;;;;5034693;28;20497;-67
2022/04/20 01:21:28;;;;;;;6.07;2.50;;;7.60;99.90;;;;;;5037218;28;20037;-66
2022/04/20 01:23:54;;;;;;;4.15;2.50;;;7.60;99.90;;;;;;5037902;28;20037;-69
2022/04/20 01:26:20;;;;;;;6.28;2.50;;;7.60;99.90;;;;;;5023751;28;21268;-66
2022/04/20 01:28:46;;;;;;;5.88;3.00;;;7.60;99.90;;;;;;5042199;28;20393;-66
2022/04/20 01:31:15;;;;;;;;;;;7.60;99.90;;;;;;5040778;28;20049;-66
2022/04/20 01:33:42;;;;;;;5.57;2.70;;;7.70;99.90;;;;;;5038670;28;19916;-66
2022/04/20 01:36:08;;;;;;;;;;;7.50;99.90;;;;;;5037742;28;20280;-66
2022/04/20 01:38:35;;;;;;;5.50;2.40;;;7.50;99.90;;;;;;5041271;28;19921;-66
2022/04/20 01:41:01;;;;;;;;;;;7.50;99.90;;;;;;5025276;28;20037;-66
2022/04/20 01:43:26;;;;;;;4.90;2.50;;;7.40;99.90;;;;;;5050326;28;19991;-66
2022/04/20 01:45:52;;;;;;;5.10;2.87;;;7.40;99.90;;;;;;5035040;28;20416;-66
2022/04/20 01:48:18;;;;;;;7.33;2.73;;;7.40;99.90;;;;;;5040929;28;20651;-66
2022/04/20 01:53:30;;;;;;;3.60;1.98;;;7.40;99.90;;;;;;5036579;28;20497;-66
2022/04/20 01:55:56;;;;;;;4.60;2.90;;;7.40;99.90;;;;;;5038427;28;20435;-66
2022/04/20 01:58:22;;;;;;;7.70;2.63;;;7.40;99.90;;;;;;5038105;28;20049;-66
2022/04/20 02:00:48;;;;;;;5.05;3.00;;;7.40;99.90;;;;;;5025018;28;20351;-66
2022/04/20 02:03:14;;;;;;;5.15;2.75;;;7.40;99.90;;;;;;5044250;28;20048;-66
2022/04/20 02:05:40;;;;;;;5.23;3.30;;;7.30;99.90;;;;;;5038434;28;20034;-66
2022/04/20 02:08:06;;;;;;;5.15;2.88;;;7.40;99.90;;;;;;5043436;28;20043;-66
2022/04/20 02:10:31;;;;;;;5.05;2.70;;;7.30;99.90;;;;;;5045205;28;20045;-66
2022/04/20 02:12:57;;;;;;;5.90;3.10;;;7.30;99.90;;;;;;5042515;28;20084;-66
2022/04/20 02:15:23;;;;;;;5.47;2.60;;;7.30;99.90;;;;;;5041103;28;20041;-66
2022/04/20 02:17:48;;;;;;;4.67;2.60;;;7.30;99.90;;;;;;5050355;28;20508;-66
2022/04/20 02:20:14;;;;;;;4.53;2.65;;;7.30;99.90;;;;;;5044360;28;20029;-66
2022/04/20 02:22:40;;;;;;;7.30;3.15;;;7.30;99.90;;;;;;5047916;28;20338;-66
2022/04/20 02:25:07;;;;;;;5.27;2.70;;;7.30;99.90;;;;;;5046353;28;20033;-66
2022/04/20 02:27:32;;;;;;;4.88;2.45;;;7.30;99.90;;;;;;5040237;28;20049;-66
2022/04/20 02:29:58;;;;;;;5.47;2.67;;;7.30;99.90;;;;;;5045055;28;20106;-66
2022/04/20 02:32:24;;;;;;;5.63;2.70;;;7.30;99.90;;;;;;5045356;28;20040;-66
2022/04/20 02:34:49;;;;;;;6.67;2.67;;;7.20;99.90;;;;;;5063216;22;20071;-82
2022/04/20 02:37:18;;;;;;;5.85;2.90;;;7.20;99.90;;;;;;5013596;28;20057;-81
2022/04/20 02:39:51;;;;;;;5.97;2.80;;;7.30;99.90;;;;;;5016127;28;20044;-81
2022/04/20 02:42:17;;;;;;;4.65;2.42;;;7.20;99.90;;;;;;5035365;28;20279;-81
2022/04/20 02:44:46;;;;;;;12.30;2.90;;;7.20;99.90;;;;;;5053798;28;20033;-82
2022/04/20 02:47:12;;;;;;;6.68;2.90;;;7.10;99.90;;;;;;5028897;28;20503;-81
2022/04/20 02:49:38;;;;;;;7.18;2.90;;;7.10;99.90;;;;;;4998605;28;20038;-82
2022/04/20 02:52:04;;;;;;;5.73;3.37;;;7.10;99.90;;;;;;5002231;28;20029;-81
2022/04/20 02:54:33;;;;;;;4.45;2.50;;;7.10;99.90;;;;;;4994008;28;20040;-81
2022/04/20 02:56:58;;;;;;;5.82;2.60;;;7.10;99.90;;;;;;5020735;28;20439;-81
2022/04/20 02:59:27;;;;;;;5.13;2.77;;;7.10;99.90;;;;;;5018923;28;20227;-81
2022/04/20 03:01:53;;;;;;;6.82;2.97;;;7.00;99.90;;;;;;5004232;28;20063;-82
2022/04/20 03:04:19;;;;;;;4.63;2.72;;;7.00;99.90;;;;;;5017891;28;20427;-81
2022/04/20 03:06:45;;;;;;;4.57;2.47;;;7.00;99.90;;;;;;5017420;28;20033;-82
2022/04/20 03:09:13;;;;;;;5.33;2.50;;;7.00;99.90;;;;;;5004692;28;20095;-81
2022/04/20 03:11:40;;;;;;;6.18;3.10;;;7.10;99.90;;;;;;4994962;28;20038;-81
2022/04/20 03:14:05;;;;;;;9.45;3.22;;;7.00;99.90;;;;;;5015376;28;20041;-82
2022/04/20 03:16:32;;;;;;;7.37;2.87;;;7.10;99.90;;;;;;5001074;28;20100;-82
2022/04/20 03:18:57;;;;;;;4.80;2.85;;;7.00;99.90;;;;;;5017131;28;20496;-80
2022/04/20 03:21:23;;;;;;;10.37;2.57;;;7.00;99.90;;;;;;5011501;28;20036;-81
2022/04/20 03:23:49;;;;;;;10.87;2.97;;;7.00;99.90;;;;;;4994169;28;20104;-80
2022/04/20 03:26:15;;;;;;;6.57;3.13;;;7.00;99.90;;;;;;5009894;28;20063;-82
2022/04/20 03:28:41;;;;;;;4.93;2.70;;;7.00;99.90;;;;;;5026541;28;20061;-81
2022/04/20 03:31:09;;;;;;;6.83;2.97;;;6.90;99.90;;;;;;5011465;28;20049;-80
2022/04/20 03:33:40;;;;;;;8.40;2.95;;;6.90;99.90;;;;;;4994875;28;20076;-80
2022/04/20 03:36:06;;;;;;;5.45;2.83;;;6.90;99.90;;;;;;5010884;28;20041;-80
2022/04/20 03:38:33;;;;;;;6.10;3.23;;;6.80;99.90;;;;;;5017891;28;20072;-80
2022/04/20 03:41:04;;;;;;;4.88;2.90;;;6.80;99.90;;;;;;5014337;28;20069;-80
2022/04/20 03:43:31;;;;;;;5.45;3.10;;;6.70;99.90;;;;;;5013919;28;20033;-81
2022/04/20 03:45:56;;;;;;;8.27;4.30;;;6.70;99.90;;;;;;5012635;28;20049;-80
2022/04/20 03:48:23;;;;;;;6.77;3.60;;;6.70;99.90;;;;;;5013217;28;20093;-80
2022/04/20 03:50:49;;;;;;;6.50;2.90;;;6.60;99.90;;;;;;4998164;28;20498;-80
2022/04/20 03:53:15;;;;;;;6.20;2.97;;;6.60;99.90;;;;;;4992217;28;20046;-81
2022/04/20 03:55:41;;;;;;;7.83;3.40;;;6.60;99.90;;;;;;4999271;28;20048;-80
2022/04/20 03:58:07;;;;;;;6.28;3.03;;;6.50;99.90;;;;;;5019350;28;20288;-80
2022/04/20 04:00:33;;;;;;;6.23;3.17;;;6.50;99.90;;;;;;5031072;28;20040;-82
2022/04/20 04:02:59;;;;;;;8.13;3.00;;;6.50;99.90;;;;;;4997769;28;20043;-81
2022/04/20 04:05:24;;;;;;;6.00;2.93;;;6.40;99.90;;;;;;5030854;28;20311;-81
2022/04/20 04:07:50;;;;;;;8.13;3.33;;;6.50;99.90;;;;;;4993376;28;20045;-80
2022/04/20 04:10:15;;;;;;;5.37;3.23;;;6.40;99.90;;;;;;5011824;28;20036;-80
2022/04/20 04:12:41;;;;;;;7.37;3.50;;;6.30;99.90;;;;;;5024013;28;20065;-81
2022/04/20 04:15:08;;;;;;;6.43;3.63;;;6.30;99.90;;;;;;5012557;28;20040;-82
2022/04/20 04:17:33;;;;;;;7.00;3.78;;;6.30;99.90;;;;;;5001110;28;20048;-80
2022/04/20 04:19:59;;;;;;;8.00;3.75;;;6.30;99.90;;;;;;5015844;28;20045;-79
2022/04/20 04:22:25;;;;;;;9.27;3.50;;;6.20;99.90;;;;;;5009921;28;20037;-80
2022/04/20 04:24:51;;;;;;;8.97;3.37;;;6.20;99.90;;;;;;5016029;28;20505;-80
2022/04/20 04:27:19;;;;;;;6.77;3.03;;;6.20;99.90;;;;;;5014721;28;20034;-80
2022/04/20 04:29:45;;;;;;;8.35;3.50;;;6.20;99.90;;;;;;5011261;28;20063;-80
2022/04/20 04:32:12;;;;;;;6.73;2.97;;;6.20;99.90;;;;;;4992037;28;20045;-80
2022/04/20 04:34:39;;;;;;;5.95;3.00;;;6.20;99.90;;;;;;5001508;28;20124;-80
2022/04/20 04:37:09;;;;;;;10.98;3.33;;;6.10;99.90;;;;;;5010025;28;20038;-80
2022/04/20 04:39:35;;;;;;;6.68;3.35;;;6.20;99.90;;;;;;4999106;28;20412;-80
2022/04/20 04:42:01;;;;;;;6.23;2.97;;;6.10;99.90;;;;;;5011655;28;20646;-80
2022/04/20 04:44:27;;;;;;;7.68;3.50;;;6.10;99.90;;;;;;4997321;28;20037;-80
2022/04/20 04:49:38;;;;;;;8.52;2.90;;;6.10;99.90;;;;;;5029307;28;20387;-80
2022/04/20 04:52:06;;;;;;;5.38;3.28;;;6.10;99.90;;;;;;4991938;28;20091;-80
2022/04/20 04:54:33;;;;;;;7.07;3.70;;;6.10;99.90;;;;;;5015455;28;20458;-80
2022/04/20 04:56:59;;;;;;;7.65;3.70;;;6.10;99.90;;;;;;5014381;28;20475;-80
2022/04/20 04:59:24;;;;;;;7.70;3.60;;;6.10;99.90;;;;;;4997197;28;20041;-80
2022/04/20 05:01:53;;;;;;;8.43;3.97;;;6.10;99.90;;;;;;5030365;28;20029;-80
2022/04/20 05:09:35;;;;;;;7.22;3.50;;;6.10;99.90;;;;;;5033782;28;20060;-73
2022/04/20 05:12:01;;;;;;;4.17;2.97;;;6.10;99.90;;;;;;5033839;28;20049;-70
2022/04/20 05:14:26;;;;;;;7.07;3.38;;;6.20;99.90;;;;;;5043099;28;20040;-67
2022/04/20 05:16:52;;;;;;;11.90;4.00;;;6.20;99.90;;;;;;5016282;28;20143;-68
2022/04/20 05:19:18;;;;;;;8.90;3.53;;;6.20;99.90;;;;;;5033398;28;20036;-67
2022/04/20 05:21:43;;;;;;;7.50;3.47;;;6.30;99.90;;;;;;5047943;22;20032;-66
2022/04/20 05:24:09;;;;;;;9.50;3.80;;;6.30;99.90;;;;;;5028333;28;20037;-66
2022/04/20 05:26:35;;;;;;;6.57;3.03;;;6.30;99.90;;;;;;5020194;28;20068;-66
2022/04/20 05:29:00;;;;;;;5.90;3.30;;;6.30;99.90;;;;;;5018984;28;20124;-67
2022/04/20 05:31:26;;;;;;;8.80;3.90;;;6.40;99.90;;;;;;5020778;28;20481;-66
2022/04/20 05:33:51;;;;;;;6.30;3.63;;;6.40;99.90;;;;;;5002812;28;20096;-67
2022/04/20 05:36:18;;;;;;;6.33;3.70;;;6.40;99.90;;;;;;4981932;28;20029;-66
2022/04/20 05:41:41;;;;;;;10.50;3.65;;;6.50;99.90;;;;;;5024495;28;20486;-67
2022/04/20 05:44:11;;;;;;;10.80;3.30;;;6.60;99.90;;;;;;5022669;28;20045;-66
2022/04/20 05:46:37;;;;;;;7.35;3.47;;;6.60;99.90;;;;;;4986096;28;20045;-66
2022/04/20 05:49:03;;;;;;;7.35;3.53;;;6.70;99.90;;;;;;5006470;28;20422;-66
2022/04/20 05:51:29;;;;;;;8.00;3.05;;;6.70;99.90;;;;;;5009741;28;20037;-66
2022/04/20 05:53:55;;;;;;;6.23;3.63;;;6.80;99.90;;;;;;5029661;28;20038;-66
2022/04/20 05:56:20;;;;;;;7.03;3.80;;;6.80;99.90;;;;;;5005442;28;20164;-66
2022/04/20 05:58:47;;;;;;;9.57;3.67;;;6.90;99.90;;;;;;5021633;28;20045;-66
2022/04/20 06:01:14;;;;;;;8.00;3.58;;;7.00;99.90;;;;;;5022354;28;20406;-66
2022/04/20 06:03:40;;;;;;;7.95;3.22;;;7.00;99.90;;;;;;5015428;28;20217;-66
2022/04/20 06:06:06;;;;;;;6.93;3.65;;;7.10;99.90;;;;;;5002791;28;20464;-66
2022/04/20 06:08:32;;;;;;;5.10;3.30;;;7.20;99.90;;;;;;5017679;28;20064;-66
2022/04/20 06:10:58;;;;;;;6.77;3.90;;;7.30;99.90;;;;;;5004374;28;20037;-66
2022/04/20 06:13:24;;;;;;;10.65;3.47;;;7.30;99.90;;;;;;5010961;28;20319;-66
2022/04/20 06:15:50;;;;;;;;;;;7.40;99.90;;;;;;5024237;28;20052;-66
2022/04/20 06:18:16;;;;;;;6.53;3.50;;;7.40;99.90;;;;;;5020869;28;19939;-66
2022/04/20 06:20:41;;;;;;;7.00;3.23;;;7.50;99.90;;;;;;5001724;28;20041;-66
2022/04/20 06:23:07;;;;;;;7.33;3.10;;;7.60;99.90;;;;;;5019030;28;20038;-66
2022/04/20 06:25:33;;;;;;;6.17;3.37;;;7.60;99.90;;;;;;5019619;28;20052;-66
2022/04/20 06:27:59;;;;;;;4.77;3.30;;;7.70;99.90;;;;;;5023010;28;20180;-67
2022/04/20 06:30:24;;;;;;;6.45;3.10;;;7.80;99.90;;;;;;5019652;28;20120;-66
2022/04/20 06:32:50;;;;;;;6.90;3.83;;;7.80;99.90;;;;;;5019071;28;20123;-66
2022/04/20 06:35:15;;;;;;;7.23;3.87;;;7.90;99.90;;;;;;5025221;28;20045;-67
2022/04/20 06:37:41;;;;;;;5.07;3.33;;;8.00;99.90;;;;;;4998433;28;20053;-67
2022/04/20 06:40:07;;;;;;;5.93;3.30;;;8.00;99.90;;;;;;5012010;28;20057;-67
2022/04/20 06:42:34;;;;;;;10.25;3.63;;;8.10;99.90;;;;;;5012360;28;20049;-67
2022/04/20 06:44:59;;;;;;;7.97;3.60;;;8.20;99.90;;;;;;5023754;28;20056;-67
2022/04/20 06:47:25;;;;;;;7.13;2.80;;;8.30;99.90;;;;;;5017383;28;20383;-67
2022/04/20 06:49:52;;;;;;;5.27;3.27;;;8.30;99.90;;;;;;5021483;28;20472;-66
2022/04/20 07:00:33;;;;;;;6.53;3.20;;;8.70;99.90;;;;;;5023323;28;20065;-66
2022/04/20 07:03:00;;;;;;;5.95;3.70;;;8.70;99.90;;;;;;5016204;28;20033;-67
2022/04/20 07:05:26;;;;;;;;;;;8.90;99.90;;;;;;5006024;28;20046;-66
2022/04/20 07:07:51;;;;;;;8.27;3.30;;;8.90;99.90;;;;;;5021548;28;20293;-67
2022/04/20 07:10:17;;;;;;;4.57;2.77;;;9.00;99.90;;;;;;5018719;28;20113;-66
2022/04/20 07:12:43;;;;;;;4.97;3.03;;;9.10;99.90;;;;;;5000155;28;20552;-66
2022/04/20 07:15:08;;;;;;;5.07;3.10;;;9.10;99.90;;;;;;5019673;28;20049;-66
2022/04/20 07:17:34;;;;;;;7.60;3.37;;;9.20;99.90;;;;;;5020316;28;20037;-66
2022/04/20 07:20:01;;;;;;;5.47;3.43;;;9.30;99.90;;;;;;5028127;28;20036;-66
2022/04/20 07:22:27;;;;;;;5.70;3.08;;;9.30;99.90;;;;;;5027859;28;20557;-66
2022/04/20 07:24:53;;;;;;;6.47;3.27;;;9.50;99.90;;;;;;5017825;28;20084;-66
2022/04/20 07:27:19;;;;;;;6.90;3.10;;;9.60;99.90;;;;;;5014202;28;20359;-65
2022/04/20 07:29:45;;;;;;;9.82;3.20;;;9.60;99.90;;;;;;5027055;28;20037;-66
2022/04/20 07:32:10;;;;;;;6.95;3.13;;;9.70;99.90;;;;;;5023189;28;20099;-66
2022/04/20 07:34:36;;;;;;;13.30;3.57;;;9.80;99.90;;;;;;5023351;28;20037;-66
2022/04/20 07:37:01;;;;;;;4.90;3.00;;;9.90;99.90;;;;;;5023376;28;20505;-65
2022/04/20 07:39:27;;;;;;;4.03;2.53;;;10.00;99.90;;;;;;5018210;28;20068;-66
2022/04/20 07:41:52;;;;;;;4.50;3.10;;;10.10;99.90;;;;;;5027405;28;20493;-65
2022/04/20 07:44:18;;;;;;;6.63;3.33;;;10.20;99.90;;;;;;5016763;28;20145;-65
2022/04/20 07:46:44;;;;;;;5.73;2.67;;;10.30;99.90;;;;;;5020831;28;20045;-66
2022/04/20 07:51:53;;;;;;;6.32;2.75;;;10.40;99.90;;;;;;5023359;28;20045;-66
2022/04/20 07:54:19;;;;;;;7.67;2.77;;;10.50;99.90;;;;;;5021321;28;20500;-66
2022/04/20 07:56:44;;;;;;;6.50;3.00;;;10.60;99.90;;;;;;4991175;28;20285;-66
2022/04/20 07:59:11;;;;;;;4.53;2.37;;;10.70;99.90;;;;;;4998225;28;20038;-67
2022/04/20 08:01:36;;;;;;;4.22;2.40;;;10.80;99.80;;;;;;5015829;28;20053;-67
2022/04/20 08:04:02;;;;;;;7.43;2.53;;;10.90;98.50;;;;;;5023218;28;20037;-66
2022/04/20 08:06:30;;;;;;;4.67;2.10;;;11.00;96.00;;;;;;5004014;28;20041;-66
2022/04/20 08:08:56;;;;;;;3.17;2.00;;;11.00;93.90;;;;;;5020583;28;20300;-66
2022/04/20 08:11:22;;;;;;;4.97;2.27;;;11.10;92.60;;;;;;5023568;28;20040;-66
2022/04/20 08:14:30;;;;;;;4.93;2.07;;;11.20;91.50;;;;;;5005653;28;20048;-67
2022/04/20 08:16:36;;;;;;;6.35;2.30;;;11.30;90.00;;;;;;4996195;28;20050;-66
2022/04/20 08:19:02;;;;;;;3.97;2.00;;;11.40;89.10;;;;;;5024789;28;20053;-66
2022/04/20 08:21:28;;;;;;;4.70;2.40;;;11.50;85.50;;;;;;5002937;28;20041;-66
2022/04/20 08:23:53;;;;;;;4.60;2.17;;;11.60;84.70;;;;;;5004546;28;20076;-66
2022/04/20 08:26:19;;;;;;;3.87;1.70;;;11.60;84.20;;;;;;5019616;28;20049;-66
2022/04/20 08:28:45;;;;;;;6.90;2.30;;;11.70;83.20;;;;;;4999751;28;20159;-66
2022/04/20 08:31:10;;;;;;;3.23;2.07;;;11.80;78.90;;;;;;5004878;28;20053;-66
2022/04/20 08:33:36;;;;;;;3.23;1.83;;;11.80;78.60;;;;;;5006860;28;20063;-66
2022/04/20 08:36:01;;;;;;;4.47;2.00;;;12.00;77.60;;;;;;5015317;28;21537;-66
2022/04/20 08:38:27;;;;;;;3.63;1.70;;;12.00;75.70;;;;;;5017367;28;20553;-69
2022/04/20 08:40:55;;;;;;;2.80;1.43;;;12.10;72.80;;;;;;5019388;28;21023;-67
2022/04/20 08:43:22;;;;;;;3.00;1.60;;;12.20;70.10;;;;;;5020768;28;20573;-66
2022/04/20 08:45:49;;;;;;;2.20;1.20;;;12.30;67.30;;;;;;5001945;28;20045;-66
2022/04/20 08:48:14;;;;;;;2.67;1.20;;;12.40;67.30;;;;;;5026465;28;20049;-66
2022/04/20 08:50:40;;;;;;;6.23;1.60;;;12.50;63.80;;;;;;5018959;28;20045;-66
2022/04/20 08:53:06;;;;;;;1.80;0.90;;;12.60;63.10;;;;;;5002926;28;20064;-67
2022/04/20 08:55:32;;;;;;;2.90;1.17;;;12.60;61.70;;;;;;5006991;28;20033;-66
2022/04/20 08:57:57;;;;;;;2.70;1.03;;;12.80;60.60;;;;;;5015118;28;20501;-67
2022/04/20 09:00:27;;;;;;;4.00;1.20;;;12.80;58.10;;;;;;5024913;28;20037;-66
2022/04/20 09:02:57;;;;;;;3.10;1.23;;;12.90;57.70;;;;;;5023546;28;20041;-66
2022/04/20 09:05:28;;;;;;;5.75;1.33;;;13.00;57.20;;;;;;5028746;28;20429;-66
2022/04/20 09:07:55;;;;;;;2.00;1.25;;;13.10;56.50;;;;;;5020578;28;20100;-67
2022/04/20 09:10:21;;;;;;;3.80;1.45;;;13.10;56.20;;;;;;5015702;28;20057;-66
2022/04/20 09:13:05;;;;;;;4.13;1.30;;;13.20;56.00;;;;;;5017271;28;20482;-67
2022/04/20 09:15:31;;;;;;;4.05;1.38;;;13.30;55.70;;;;;;4989360;28;20064;-66
2022/04/20 09:17:59;;;;;;;5.45;1.27;;;13.40;55.30;;;;;;5021057;28;20164;-67
2022/04/20 09:20:25;;;;;;;3.78;1.45;;;13.50;55.70;;;;;;5000042;28;20041;-67
2022/04/20 09:23:07;;;;;;;3.15;1.30;;;13.60;55.70;;;;;;5015778;28;20421;-66
2022/04/20 09:25:38;;;;;;;2.33;1.20;;;13.70;55.20;;;;;;5004677;28;20034;-67
2022/04/20 09:28:05;;;;;;;3.38;1.40;;;13.80;54.40;;;;;;5009250;28;20123;-66
2022/04/20 09:30:33;;;;;;;2.30;1.08;;;14.00;54.20;;;;;;5018309;28;20038;-67
2022/04/20 09:32:59;;;;;;;2.70;1.02;;;14.10;53.60;;;;;;5002070;28;20508;-67
2022/04/20 09:35:24;;;;;;;2.65;1.00;;;14.20;52.30;;;;;;5021950;28;20037;-66
2022/04/20 09:38:11;;;;;;;2.03;1.10;;;14.30;52.70;;;;;;5023785;28;20076;-66
2022/04/20 09:40:38;;;;;;;3.60;1.13;;;14.40;50.50;;;;;;5009713;28;20048;-67
2022/04/20 09:43:06;;;;;;;1.63;0.93;;;14.40;50.90;;;;;;5004009;28;20045;-67
2022/04/20 09:45:33;;;;;;;4.20;1.00;;;14.50;50.30;;;;;;4983620;28;20045;-67
2022/04/20 09:51:13;;;;;;;2.20;0.95;;;14.60;49.70;;;;;;5017996;28;20077;-67
2022/04/20 09:53:40;;;;;;;1.75;0.95;;;14.70;49.10;;;;;;5016876;28;20391;-67
2022/04/20 09:56:20;;;;;;;1.75;0.85;;;14.80;50.20;;;;;;5015242;28;20045;-66
2022/04/20 09:58:47;;;;;;;2.17;1.10;;;14.90;49.00;;;;;;5023400;28;20057;-66
2022/04/20 10:01:25;;;;;;;5.85;1.38;;;15.00;49.80;;;;;;5021979;28;20123;-67
2022/04/20 10:03:54;;;;;;;3.78;1.70;;;15.10;49.70;;;;;;5021503;28;20367;-67
2022/04/20 10:06:21;;;;;;;4.15;1.45;;;15.20;48.50;;;;;;5023498;28;20564;-67
2022/04/20 10:08:46;;;;;;;2.95;1.40;;;15.20;48.50;;;;;;5009884;28;20053;-67
2022/04/20 10:11:14;;;;;;;3.42;1.58;;;15.30;48.60;;;;;;5025984;28;20037;-66
2022/04/20 10:13:40;;;;;;;2.20;1.23;;;15.40;49.20;;;;;;5030611;28;20118;-67
2022/04/20 10:16:10;;;;;;;2.03;1.10;;;15.40;48.60;;;;;;5018928;28;20144;-67
2022/04/20 10:18:40;;;;;;;3.42;1.42;;;15.40;48.60;;;;;;5018800;28;20091;-66
2022/04/20 10:21:11;;;;;;;1.90;1.00;;;15.50;48.20;;;;;;5022252;28;20645;-67
2022/04/20 10:23:41;;;;;;;2.67;1.40;;;15.60;47.80;;;;;;5028569;28;20087;-67
2022/04/20 10:26:08;;;;;;;2.25;1.27;;;15.70;47.10;;;;;;5014149;28;20037;-67
2022/04/20 10:28:40;;;;;;;;;;;15.70;47.70;;;;;;5019290;28;20497;-67
2022/04/20 10:31:31;;;;;;;2.85;1.05;;;15.80;48.10;;;;;;5000423;28;20384;-67
2022/04/20 10:33:57;;;;;;;3.55;1.10;;;15.90;47.00;;;;;;5027765;28;20053;-67
2022/04/20 10:36:33;;;;;;;4.35;1.30;;;15.90;47.40;;;;;;5026896;28;20409;-67
2022/04/20 10:39:27;;;;;;;3.05;1.50;;;16.00;46.30;;;;;;5017334;28;20042;-67
2022/04/20 10:42:11;;;;;;;2.75;1.02;;;16.10;44.30;;;;;;5004869;28;20498;-67
2022/04/20 10:44:55;;;;;;;3.30;1.23;;;16.20;44.70;;;;;;5023081;28;20052;-67
2022/04/20 10:47:27;;;;;;;6.75;1.38;;;16.30;44.20;;;;;;5010238;28;20055;-67
2022/04/20 10:50:10;;;;;;;2.38;0.95;;;16.30;45.20;;;;;;5025151;28;20152;-67
2022/04/20 10:52:38;;;;;;;1.55;0.98;;;16.30;45.30;;;;;;5017889;28;20444;-67
2022/04/20 10:55:04;;;;;;;2.03;1.00;;;16.40;44.50;;;;;;5018912;28;20088;-66
2022/04/20 10:57:35;;;;;;;3.38;0.93;;;16.40;43.60;;;;;;5020265;28;20046;-66
2022/04/20 11:00:36;;;;;;;2.67;1.05;;;16.50;43.60;;;;;;5025272;28;20041;-67
2022/04/20 11:03:07;;;;;;;1.75;1.05;;;16.60;43.60;;;;;;4992156;28;20107;-67
2022/04/20 11:05:53;;;;;;;2.15;1.10;;;16.60;43.00;;;;;;5025270;28;20033;-67
2022/04/20 11:08:20;;;;;;;5.10;1.00;;;16.70;44.30;;;;;;5019482;28;20052;-67
2022/04/20 11:19:20;;;;;;;2.55;1.48;;;17.20;43.10;;;;;;5023825;28;20344;-67
2022/04/20 11:22:08;;;;;;;3.53;1.20;;;17.10;43.20;;;;;;5003684;28;20034;-67
2022/04/20 11:24:34;;;;;;;2.20;0.98;;;17.20;42.20;;;;;;5049585;22;20056;-68
2022/04/20 11:26:59;;;;;;;2.65;1.00;;;17.20;42.70;;;;;;5025877;28;20489;-67
2022/04/20 11:29:27;;;;;;;2.10;1.20;;;17.20;43.30;;;;;;5047000;28;20052;-66
2022/04/20 11:31:57;;;;;;;2.15;1.00;;;17.30;43.10;;;;;;5048184;28;20180;-67
2022/04/20 11:34:26;;;;;;;2.17;0.98;;;17.40;42.70;;;;;;5029056;28;20148;-67
2022/04/20 11:36:55;;;;;;;4.15;1.23;;;17.40;42.20;;;;;;5039633;28;20106;-67
2022/04/20 11:39:25;;;;;;;2.15;1.10;;;17.50;42.50;;;;;;5042586;28;20146;-67
2022/04/20 11:42:00;;;;;;;2.05;1.10;;;17.60;42.30;;;;;;5043507;28;20458;-67
2022/04/20 11:44:31;;;;;;;2.97;1.10;;;17.60;41.50;;;;;;5045286;28;20037;-67
2022/04/20 11:47:01;;;;;;;2.20;1.00;;;17.60;41.80;;;;;;5018505;28;20056;-67
2022/04/20 11:49:32;;;;;;;2.42;1.20;;;17.70;41.30;;;;;;5043633;28;20094;-67
2022/04/20 11:51:59;;;;;;;3.20;1.10;;;17.80;41.70;;;;;;5043169;28;20055;-67
2022/04/20 11:54:27;;;;;;;3.03;1.08;;;17.90;41.60;;;;;;5021613;28;20068;-68
2022/04/20 11:56:53;;;;;;;3.50;1.00;;;17.90;40.30;;;;;;5008296;28;20060;-68
2022/04/20 11:59:21;;;;;;;0.88;0.75;;;18.00;40.10;;;;;;5038178;28;20025;-68
2022/04/20 12:01:47;;;;;;;1.55;0.80;;;18.00;39.60;;;;;;5040532;28;20055;-68
2022/04/20 12:04:18;;;;;;;3.25;1.00;;;18.00;39.60;;;;;;5042098;28;20114;-68
2022/04/20 12:06:58;;;;;;;1.80;0.90;;;18.10;39.60;;;;;;5008229;28;20498;-68
2022/04/20 12:09:40;;;;;;;1.85;1.00;;;18.20;39.70;;;;;;5043465;28;20048;-68
2022/04/20 12:12:11;;;;;;;2.08;0.90;;;18.20;39.00;;;;;;5022781;28;20041;-68
2022/04/20 12:14:39;;;;;;;2.42;0.80;;;18.20;40.00;;;;;;5043874;28;20047;-68
2022/04/20 12:17:07;;;;;;;1.85;0.98;;;18.30;40.50;;;;;;5023172;28;20417;-68
2022/04/20 12:19:33;;;;;;;3.17;0.80;;;18.40;39.60;;;;;;5041808;28;20067;-68
2022/04/20 12:22:26;;;;;;;1.67;0.70;;;18.40;39.50;;;;;;5043108;28;20053;-68
2022/04/20 12:25:14;;;;;;;1.45;0.80;;;18.50;39.40;;;;;;5043436;28;20044;-68
2022/04/20 12:27:50;;;;;;;;;;;18.60;38.60;;;;;;5034497;28;20640;-68
2022/04/20 12:30:16;;;;;;;1.45;0.88;;;18.60;39.00;;;;;;5024346;28;20384;-68
2022/04/20 12:32:41;;;;;;;2.30;0.85;;;18.80;40.50;;;;;;5043965;28;20189;-68
2022/04/20 12:35:07;;;;;;;3.03;0.70;;;18.90;40.00;;;;;;5040547;28;20059;-68
2022/04/20 12:37:33;;;;;;;1.27;0.77;;;19.00;40.30;;;;;;5008378;28;20044;-68
2022/04/20 12:40:20;;;;;;;2.15;0.80;;;18.90;40.20;;;;;;5010609;28;20043;-68
2022/04/20 12:43:07;;;;;;;1.88;0.60;;;19.10;40.30;;;;;;5021829;28;20143;-68
2022/04/20 12:45:33;;;;;;;2.22;0.95;;;19.20;39.80;;;;;;5019782;28;20107;-68
2022/04/20 12:48:06;;;;;;;1.33;0.73;;;19.20;40.00;;;;;;5041841;28;20037;-68
2022/04/20 12:50:41;;;;;;;2.42;0.95;;;19.10;40.20;;;;;;5021899;28;20048;-68
2022/04/20 12:53:07;;;;;;;3.30;0.70;;;19.10;39.70;;;;;;5032634;28;20120;-68
2022/04/20 12:55:35;;;;;;;3.15;0.77;;;19.00;39.70;;;;;;4998694;28;20489;-68
2022/04/20 13:03:35;;;;;;;2.63;0.80;;;19.10;40.30;;;;;;5039620;28;20072;-68
2022/04/20 13:06:01;;;;;;;1.65;0.55;;;19.20;40.30;;;;;;5025668;28;20182;-68
2022/04/20 13:08:27;;;;;;;2.42;0.40;;;19.20;39.60;;;;;;5043131;28;20107;-68
2022/04/20 13:10:53;;;;;;;0.82;0.40;;;19.10;39.10;;;;;;5022775;28;20041;-68
2022/04/20 13:13:26;;;;;;;1.88;1.02;;;19.10;39.50;;;;;;5024386;28;20043;-68
2022/04/20 13:15:52;;;;;;;1.10;0.70;;;19.20;39.60;;;;;;5010440;28;20045;-68
2022/04/20 13:18:18;;;;;;;1.05;0.60;;;19.10;39.20;;;;;;5040507;28;20052;-68
2022/04/20 13:20:45;;;;;;;1.70;0.52;;;19.10;39.20;;;;;;4998151;28;20495;-68
2022/04/20 13:23:11;;;;;;;1.38;0.63;;;19.10;39.30;;;;;;5040572;28;20076;-68
2022/04/20 13:28:21;;;;;;;3.03;0.70;;;19.30;40.60;;;;;;5037830;28;20050;-68
2022/04/20 13:30:47;;;;;;;1.73;0.75;;;19.50;40.60;;;;;;5042380;28;20454;-67
2022/04/20 13:33:15;;;;;;;1.95;0.88;;;19.60;39.90;;;;;;5023603;28;20092;-67
2022/04/20 13:35:42;;;;;;;1.30;0.60;;;19.70;39.70;;;;;;5024360;28;20106;-67
2022/04/20 13:38:11;;;;;;;1.98;0.80;;;19.60;39.90;;;;;;5034250;28;20029;-67
2022/04/20 13:40:38;;;;;;;1.10;0.65;;;19.50;39.50;;;;;;5033430;28;20033;-67